Time;durP1;ratioP1;P1;durP2;ratioP2;P2;SDS_P1;SDS_P2;PMS_P1;PMS_P2;Temp;Humidity;BMP_temperature;BMP_pressure;BME280_temperature;BME280_humidity;BME280_pressure;Samples;Min_cycle;Max_cycle;Signal;HPM_P1;HPM_P2
2021/01/11 00:41:43;;;;;;;8.73;6.57;;;1.10;99.90;;;;;;4931587;29;20234;-74
2021/01/11 00:44:12;;;;;;;8.52;5.97;;;1.00;99.90;;;;;;4915168;29;20612;-74
2021/01/11 00:46:43;;;;;;;9.10;5.93;;;1.10;99.90;;;;;;4932286;29;20253;-74
2021/01/11 00:49:12;;;;;;;11.35;6.43;;;1.00;99.90;;;;;;4933401;29;20210;-75
2021/01/11 00:51:41;;;;;;;8.80;6.43;;;1.10;99.90;;;;;;4933983;29;20358;-75
2021/01/11 00:54:10;;;;;;;8.70;5.60;;;0.90;99.90;;;;;;4933987;29;20206;-75
2021/01/11 00:56:40;;;;;;;11.52;5.88;;;0.90;99.90;;;;;;4933862;29;20219;-74
2021/01/11 00:59:37;;;;;;;6.05;5.07;;;0.90;99.90;;;;;;4929736;29;20608;-75
2021/01/11 01:02:05;;;;;;;9.75;6.15;;;0.90;99.90;;;;;;4916477;29;20273;-75
2021/01/11 06:35:35;;;;;;;6.50;4.18;;;0.30;99.90;;;;;;4152146;29;20598;-74
2021/01/11 06:38:11;;;;;;;11.30;4.50;;;0.20;99.90;;;;;;4917079;29;20278;-74
2021/01/11 06:40:44;;;;;;;6.03;3.78;;;0.20;99.90;;;;;;4917920;29;20203;-74
2021/01/11 06:43:17;;;;;;;8.65;4.68;;;0.20;99.90;;;;;;4893877;29;20701;-74
2021/01/11 06:45:51;;;;;;;7.53;4.35;;;0.30;99.90;;;;;;4896267;29;20576;-74
2021/01/11 06:48:24;;;;;;;8.15;4.78;;;0.20;99.90;;;;;;4898416;29;20208;-74
2021/01/11 06:51:05;;;;;;;5.57;3.90;;;0.20;99.90;;;;;;4915260;29;20227;-74
2021/01/11 06:53:38;;;;;;;6.47;4.30;;;0.20;99.90;;;;;;4908357;29;20710;-75
2021/01/11 06:56:12;;;;;;;6.10;4.85;;;0.30;99.90;;;;;;4916946;29;20561;-74
2021/01/11 06:58:46;;;;;;;5.70;4.85;;;0.20;99.90;;;;;;4916916;29;20322;-75
2021/01/11 07:01:29;;;;;;;6.35;4.20;;;0.30;99.90;;;;;;4916887;29;20199;-75
2021/01/11 07:04:01;;;;;;;9.27;5.45;;;0.20;99.90;;;;;;4915328;29;20299;-74
2021/01/11 07:06:37;;;;;;;10.20;6.05;;;0.30;99.90;;;;;;4910934;29;20200;-75
2021/01/11 07:09:11;;;;;;;9.27;5.30;;;0.20;99.90;;;;;;4914123;29;20294;-75
2021/01/11 07:11:45;;;;;;;8.32;6.20;;;0.30;99.90;;;;;;4914437;29;20271;-74
2021/01/11 07:14:20;;;;;;;10.02;6.60;;;0.30;99.90;;;;;;4912725;29;20548;-76
2021/01/11 07:16:55;;;;;;;13.50;7.38;;;0.30;99.90;;;;;;4898913;29;20220;-75
2021/01/11 07:19:43;;;;;;;11.50;7.45;;;0.30;99.90;;;;;;4916913;29;20188;-75
2021/01/11 07:22:17;;;;;;;13.15;7.95;;;0.30;99.90;;;;;;4897765;29;20761;-74
2021/01/11 07:24:49;;;;;;;10.63;6.88;;;0.20;99.90;;;;;;4915843;29;20657;-75
2021/01/11 07:27:18;;;;;;;9.90;6.97;;;0.30;99.90;;;;;;4912411;29;20201;-74
2021/01/11 07:29:57;;;;;;;13.15;7.35;;;0.40;99.90;;;;;;4911095;29;20305;-75
2021/01/11 07:32:32;;;;;;;15.57;7.28;;;0.30;99.90;;;;;;4914807;29;20214;-76
2021/01/11 07:35:06;;;;;;;14.65;7.60;;;0.20;99.90;;;;;;4907241;29;20277;-76
2021/01/11 07:37:35;;;;;;;16.40;9.23;;;0.30;99.90;;;;;;4913507;29;20279;-76
2021/01/11 07:40:09;;;;;;;17.15;9.32;;;0.20;99.90;;;;;;4896061;29;20200;-75
2021/01/11 07:42:42;;;;;;;13.98;8.57;;;0.30;99.90;;;;;;4899594;29;20226;-75
2021/01/11 07:45:12;;;;;;;22.13;14.10;;;0.30;99.90;;;;;;4909337;29;20224;-84
2021/01/11 07:47:40;;;;;;;22.38;12.40;;;0.30;99.90;;;;;;4910888;29;20206;-82
2021/01/11 08:24:27;;;;;;;12.93;8.52;;;0.50;99.90;;;;;;4907908;29;20192;-76
2021/01/11 08:27:35;;;;;;;12.00;7.50;;;0.60;99.90;;;;;;4910882;29;20200;-76
2021/01/11 08:46:55;;;;;;;8.90;6.07;;;0.80;99.90;;;;;;4910222;29;20231;-75
2021/01/11 08:49:28;;;;;;;7.72;6.40;;;0.80;99.90;;;;;;4911540;29;20278;-76
2021/01/11 08:52:08;;;;;;;9.45;5.75;;;0.80;99.90;;;;;;4912462;29;20219;-76
2021/01/11 08:54:41;;;;;;;17.65;5.90;;;0.90;99.90;;;;;;4890370;29;20200;-77
2021/01/11 08:57:15;;;;;;;11.15;6.68;;;1.00;99.90;;;;;;4912481;29;20238;-74
2021/01/11 08:59:50;;;;;;;13.30;7.15;;;0.80;99.90;;;;;;4912378;29;20226;-74
2021/01/11 09:02:26;;;;;;;11.43;6.68;;;0.90;99.90;;;;;;4912978;29;20216;-74
2021/01/11 09:05:14;;;;;;;17.42;6.88;;;0.90;99.90;;;;;;4895342;29;20668;-74
2021/01/11 09:07:47;;;;;;;10.18;6.47;;;0.90;99.90;;;;;;4897803;29;20203;-74
2021/01/11 09:10:23;;;;;;;13.05;7.18;;;1.00;99.90;;;;;;4914841;29;20247;-74
2021/01/11 09:12:50;;;;;;;9.93;6.47;;;0.90;99.90;;;;;;4897977;29;20715;-75
2021/01/11 09:15:25;;;;;;;10.18;7.00;;;1.00;99.90;;;;;;4893970;29;20610;-75
2021/01/11 09:18:07;;;;;;;8.48;6.18;;;0.90;99.90;;;;;;4889540;29;20642;-76
2021/01/11 09:20:44;;;;;;;8.77;6.68;;;1.00;99.90;;;;;;4898033;29;20203;-77
2021/01/11 09:23:16;;;;;;;8.20;5.15;;;1.00;99.90;;;;;;4912938;29;20227;-75
2021/01/11 09:25:49;;;;;;;7.50;5.57;;;0.90;99.90;;;;;;4912745;29;20227;-74
2021/01/11 09:28:22;;;;;;;7.15;5.43;;;0.90;99.90;;;;;;4913592;29;20208;-74
2021/01/11 09:30:54;;;;;;;10.68;5.28;;;1.00;99.90;;;;;;4914506;29;20553;-74
2021/01/11 09:33:28;;;;;;;7.68;5.25;;;1.00;99.90;;;;;;4914123;29;20741;-76
2021/01/11 09:36:00;;;;;;;7.18;4.90;;;1.00;99.90;;;;;;4914166;29;20202;-76
2021/01/11 09:38:28;;;;;;;9.13;5.65;;;1.10;99.90;;;;;;4908870;29;21128;-75
2021/01/11 09:40:55;;;;;;;8.95;6.30;;;1.10;99.90;;;;;;4910042;29;20207;-75
2021/01/11 09:43:27;;;;;;;7.25;5.03;;;1.00;99.90;;;;;;4912423;29;20243;-75
2021/01/11 09:46:00;;;;;;;8.38;5.95;;;1.10;99.90;;;;;;4911834;29;20224;-74
2021/01/11 09:48:34;;;;;;;8.10;6.18;;;1.10;99.90;;;;;;4912657;29;20195;-75
2021/01/11 09:51:06;;;;;;;12.25;5.50;;;1.10;99.90;;;;;;4913271;29;20212;-76
2021/01/11 09:53:38;;;;;;;7.50;5.15;;;1.20;99.90;;;;;;4913974;29;20530;-75
2021/01/11 09:56:11;;;;;;;12.63;6.50;;;1.20;99.90;;;;;;4914050;29;20638;-76
2021/01/11 09:58:44;;;;;;;8.18;5.85;;;1.20;99.90;;;;;;4913550;29;20229;-75
2021/01/11 10:01:16;;;;;;;7.75;4.88;;;1.30;99.90;;;;;;4911537;29;20977;-75
2021/01/11 10:03:50;;;;;;;8.45;5.10;;;1.30;99.90;;;;;;4913792;29;20208;-76
2021/01/11 10:06:22;;;;;;;8.73;5.35;;;1.30;99.90;;;;;;4916195;29;20256;-76
2021/01/11 10:08:55;;;;;;;8.02;4.85;;;1.30;99.90;;;;;;4915911;29;20259;-74
2021/01/11 10:11:28;;;;;;;8.57;5.80;;;1.40;99.90;;;;;;4915745;29;20537;-75
2021/01/11 10:14:07;;;;;;;7.22;5.32;;;1.40;99.90;;;;;;4917765;29;20203;-75
2021/01/11 10:16:34;;;;;;;7.97;5.45;;;1.50;99.90;;;;;;4917812;29;20226;-75
2021/01/11 10:19:07;;;;;;;9.85;6.05;;;1.60;99.90;;;;;;4917757;29;20200;-74
2021/01/11 10:21:40;;;;;;;8.95;6.05;;;1.60;99.90;;;;;;4915961;29;20205;-74
2021/01/11 10:24:14;;;;;;;7.28;5.45;;;1.60;99.90;;;;;;4911485;29;20243;-75
2021/01/11 10:26:42;;;;;;;8.98;5.65;;;1.60;99.90;;;;;;4898197;29;20239;-75
2021/01/11 10:29:15;;;;;;;5.25;4.47;;;1.60;99.90;;;;;;4898826;29;20291;-76
2021/01/11 10:31:48;;;;;;;8.93;5.47;;;1.60;99.90;;;;;;4915984;29;20275;-75
2021/01/11 10:34:22;;;;;;;6.90;5.00;;;1.60;99.90;;;;;;4908888;29;20206;-76
2021/01/11 10:36:56;;;;;;;6.28;4.65;;;1.70;99.90;;;;;;4900068;29;20590;-76
2021/01/11 10:39:38;;;;;;;8.77;5.18;;;1.70;99.90;;;;;;4911316;29;20563;-75
2021/01/11 10:42:11;;;;;;;9.30;6.28;;;1.80;99.90;;;;;;4916719;29;20302;-74
2021/01/11 10:44:43;;;;;;;10.05;6.95;;;1.80;99.90;;;;;;4914028;29;20225;-76
2021/01/11 10:47:16;;;;;;;10.98;6.45;;;1.80;99.90;;;;;;4910673;29;20480;-76
2021/01/11 10:49:49;;;;;;;8.68;6.18;;;1.80;99.90;;;;;;4914711;29;20290;-75
2021/01/11 10:52:22;;;;;;;7.57;6.10;;;1.80;99.90;;;;;;4915122;29;20223;-76
2021/01/11 10:54:54;;;;;;;7.78;5.47;;;1.90;99.90;;;;;;4915020;29;20198;-76
2021/01/11 10:57:27;;;;;;;11.23;5.47;;;1.90;99.90;;;;;;4915652;29;20303;-76
2021/01/11 10:59:59;;;;;;;9.10;5.22;;;1.90;99.90;;;;;;4917272;29;20548;-74
2021/01/11 11:02:26;;;;;;;9.25;6.32;;;1.90;99.90;;;;;;4916028;29;20230;-76
2021/01/11 11:04:59;;;;;;;6.53;4.53;;;2.00;99.90;;;;;;4910921;29;20251;-75
2021/01/11 11:07:35;;;;;;;8.27;5.50;;;2.00;99.90;;;;;;4912785;29;20199;-74
2021/01/11 11:10:09;;;;;;;7.05;4.97;;;2.00;99.90;;;;;;4914237;29;20594;-74
2021/01/11 11:12:36;;;;;;;10.65;6.05;;;2.00;99.90;;;;;;4890874;29;20270;-77
2021/01/11 11:15:10;;;;;;;8.05;5.32;;;2.00;99.90;;;;;;4914836;29;20231;-75
2021/01/11 11:17:42;;;;;;;8.07;5.65;;;2.00;99.90;;;;;;4912686;29;20742;-75
2021/01/11 11:20:16;;;;;;;9.25;5.68;;;2.00;99.90;;;;;;4916506;29;20654;-75
2021/01/11 11:22:49;;;;;;;8.00;5.28;;;2.10;99.90;;;;;;4916571;29;20223;-76
2021/01/11 11:25:21;;;;;;;7.03;4.85;;;2.10;99.90;;;;;;4899789;29;20215;-75
2021/01/11 11:27:54;;;;;;;8.57;5.75;;;2.00;99.90;;;;;;4893630;29;20946;-75
2021/01/11 11:30:26;;;;;;;6.78;4.90;;;2.00;99.90;;;;;;4912854;29;20193;-75
2021/01/11 11:33:00;;;;;;;5.15;4.40;;;2.10;99.90;;;;;;4914270;29;20267;-75
2021/01/11 11:35:33;;;;;;;6.72;5.13;;;2.00;99.90;;;;;;4896757;29;20688;-76
2021/01/11 11:38:00;;;;;;;8.95;5.78;;;2.00;99.90;;;;;;4914560;29;20224;-75
2021/01/11 11:40:32;;;;;;;9.23;5.82;;;2.10;99.90;;;;;;4915604;29;20196;-77
2021/01/11 11:43:05;;;;;;;7.75;5.53;;;2.00;99.90;;;;;;4916368;29;20576;-75
2021/01/11 11:45:32;;;;;;;6.43;4.80;;;2.10;99.90;;;;;;4915124;29;20245;-76
2021/01/11 11:48:05;;;;;;;8.10;5.50;;;2.10;99.90;;;;;;4915852;29;20263;-76
2021/01/11 11:50:39;;;;;;;7.63;5.63;;;2.10;99.90;;;;;;4902096;29;20240;-76
2021/01/11 11:53:11;;;;;;;7.80;5.60;;;2.20;99.90;;;;;;4911855;29;20219;-75
2021/01/11 11:55:44;;;;;;;8.00;6.00;;;2.10;99.90;;;;;;4913978;29;20192;-77
2021/01/11 11:58:17;;;;;;;9.18;5.30;;;2.10;99.90;;;;;;4913453;29;20224;-75
2021/01/11 12:00:49;;;;;;;7.35;5.38;;;2.10;99.90;;;;;;4914518;29;20259;-75
2021/01/11 12:03:23;;;;;;;9.25;5.90;;;2.20;99.90;;;;;;4913810;29;20688;-74
2021/01/11 12:05:57;;;;;;;9.65;6.60;;;2.20;99.90;;;;;;4916107;29;20547;-74
2021/01/11 12:08:24;;;;;;;9.00;5.43;;;2.20;99.90;;;;;;4915081;29;20720;-75
2021/01/11 12:10:59;;;;;;;7.60;5.25;;;2.20;99.90;;;;;;4914377;29;20204;-77
2021/01/11 12:13:31;;;;;;;10.48;5.72;;;2.20;99.90;;;;;;4909655;29;20224;-76
2021/01/11 12:15:58;;;;;;;9.32;5.82;;;2.30;99.90;;;;;;4911260;29;20200;-76
2021/01/11 12:18:25;;;;;;;9.65;6.35;;;2.20;99.90;;;;;;4912226;29;20242;-75
2021/01/11 12:20:59;;;;;;;9.20;6.00;;;2.30;99.90;;;;;;4913063;29;20194;-74
2021/01/11 12:23:31;;;;;;;8.43;5.80;;;2.30;99.90;;;;;;4911699;29;20283;-75
2021/01/11 12:25:58;;;;;;;9.52;6.00;;;2.30;99.90;;;;;;4911189;29;20236;-75
2021/01/11 12:28:30;;;;;;;7.78;5.68;;;2.40;99.90;;;;;;4908862;29;20212;-77
2021/01/11 12:31:03;;;;;;;7.78;6.05;;;2.40;99.90;;;;;;4912282;29;20208;-75
2021/01/11 12:33:35;;;;;;;9.05;6.28;;;2.50;99.90;;;;;;4911656;29;20211;-76
2021/01/11 12:36:09;;;;;;;9.38;6.30;;;2.40;99.90;;;;;;4911612;29;20201;-74
2021/01/11 12:38:36;;;;;;;9.15;5.93;;;2.50;99.90;;;;;;4910569;29;20230;-75
2021/01/11 12:41:08;;;;;;;9.90;6.03;;;2.50;99.90;;;;;;4914171;29;20196;-75
2021/01/11 12:43:41;;;;;;;8.90;6.45;;;2.50;99.90;;;;;;4912382;29;20212;-74
2021/01/11 12:46:20;;;;;;;10.75;6.05;;;2.60;99.90;;;;;;4912547;29;20414;-75
2021/01/11 12:48:53;;;;;;;10.35;6.28;;;2.60;99.90;;;;;;4905052;29;20207;-75
2021/01/11 12:51:27;;;;;;;9.68;5.95;;;2.60;99.90;;;;;;4909243;29;20568;-75
2021/01/11 12:54:00;;;;;;;9.18;5.97;;;2.60;99.90;;;;;;4912801;29;20242;-74
2021/01/11 12:56:33;;;;;;;6.38;4.45;;;2.60;99.90;;;;;;4912301;29;20247;-76
2021/01/11 12:59:00;;;;;;;7.53;5.53;;;2.60;99.90;;;;;;4913155;29;20216;-75
2021/01/11 13:01:34;;;;;;;7.93;5.72;;;2.60;99.90;;;;;;4895996;29;20299;-74
2021/01/11 13:04:06;;;;;;;7.97;5.05;;;2.60;99.90;;;;;;4898075;29;20196;-74
2021/01/11 13:06:41;;;;;;;6.55;4.82;;;2.70;99.90;;;;;;4896912;29;20202;-76
2021/01/11 13:09:13;;;;;;;7.45;5.55;;;2.70;99.90;;;;;;4897573;29;20187;-74
2021/01/11 13:11:46;;;;;;;7.45;5.15;;;2.70;99.90;;;;;;4910691;29;20326;-76
2021/01/11 13:14:19;;;;;;;6.70;5.03;;;2.70;99.90;;;;;;4910098;29;20282;-74
2021/01/11 13:16:53;;;;;;;6.97;5.53;;;2.70;99.90;;;;;;4911422;29;20210;-75
2021/01/11 13:19:26;;;;;;;6.78;5.60;;;2.80;99.90;;;;;;4912555;29;20546;-75
2021/01/11 13:21:59;;;;;;;7.03;5.40;;;2.80;99.90;;;;;;4912763;29;20220;-74
2021/01/11 13:24:32;;;;;;;6.10;4.78;;;2.70;99.90;;;;;;4913108;29;20204;-74
2021/01/11 13:26:58;;;;;;;8.70;6.30;;;2.80;99.90;;;;;;4906803;29;20291;-74
2021/01/11 13:29:25;;;;;;;7.53;5.10;;;2.80;99.90;;;;;;4906618;29;20198;-77
2021/01/11 13:31:52;;;;;;;9.07;6.13;;;2.80;99.90;;;;;;4906520;29;20333;-76
2021/01/11 13:34:19;;;;;;;7.38;5.00;;;2.90;99.90;;;;;;4908552;29;20208;-75
2021/01/11 13:36:46;;;;;;;7.25;5.28;;;2.90;99.90;;;;;;4892854;29;20348;-76
2021/01/11 13:39:13;;;;;;;8.32;5.70;;;2.90;99.90;;;;;;4892346;29;20235;-74
2021/01/11 13:41:41;;;;;;;7.43;5.43;;;2.90;99.90;;;;;;4910062;29;20231;-75
2021/01/11 13:44:09;;;;;;;9.70;6.30;;;2.90;99.90;;;;;;4911148;29;20317;-74
2021/01/11 13:46:40;;;;;;;7.97;5.80;;;2.90;99.90;;;;;;4893320;29;20228;-75
2021/01/11 13:49:07;;;;;;;9.50;6.40;;;2.90;99.90;;;;;;4910955;29;20203;-75
2021/01/11 13:51:34;;;;;;;9.23;6.05;;;2.90;99.90;;;;;;4890694;29;20200;-76
2021/01/11 13:54:07;;;;;;;8.32;4.85;;;2.90;99.90;;;;;;4908540;29;20613;-75
2021/01/11 13:56:43;;;;;;;8.20;5.40;;;3.00;99.90;;;;;;4911237;29;20258;-74
2021/01/11 13:59:16;;;;;;;6.78;5.15;;;3.00;99.90;;;;;;4911808;29;20259;-75
2021/01/11 14:01:50;;;;;;;7.20;5.03;;;3.00;99.90;;;;;;4911975;29;20238;-76
2021/01/11 14:04:23;;;;;;;6.30;4.93;;;3.00;99.90;;;;;;4913080;29;20207;-75
2021/01/11 14:06:55;;;;;;;7.45;5.57;;;3.10;99.90;;;;;;4913535;29;20199;-75
2021/01/11 14:09:28;;;;;;;6.90;5.68;;;3.10;99.90;;;;;;4913838;29;20541;-76
2021/01/11 14:12:01;;;;;;;7.47;5.72;;;3.10;99.90;;;;;;4912661;29;20666;-75
2021/01/11 14:14:28;;;;;;;6.38;5.22;;;3.20;99.90;;;;;;4909098;29;20232;-76
2021/01/11 14:17:00;;;;;;;8.80;6.55;;;3.10;99.90;;;;;;4908113;29;20291;-75
2021/01/11 14:19:33;;;;;;;7.40;5.53;;;3.10;99.90;;;;;;4911454;29;20251;-76
2021/01/11 14:22:05;;;;;;;8.50;5.78;;;3.20;99.90;;;;;;4911161;29;20218;-75
2021/01/11 14:24:32;;;;;;;9.68;6.45;;;3.10;99.90;;;;;;4912108;29;20196;-76
2021/01/11 14:27:07;;;;;;;8.48;5.95;;;3.20;99.90;;;;;;4912471;29;20654;-74
2021/01/11 14:29:34;;;;;;;9.95;7.05;;;3.20;99.90;;;;;;4912948;29;20191;-75
2021/01/11 14:44:04;;;;;;;9.97;6.70;;;3.30;99.90;;;;;;4910151;29;20192;-76
2021/01/11 14:46:37;;;;;;;10.93;7.30;;;3.30;99.90;;;;;;4913665;29;20224;-75
2021/01/11 14:49:07;;;;;;;9.57;6.78;;;3.40;99.90;;;;;;4913581;29;20208;-77
2021/01/11 14:51:55;;;;;;;10.05;6.95;;;3.30;99.90;;;;;;4893969;29;20252;-76
2021/01/11 14:54:28;;;;;;;10.55;7.10;;;3.40;99.90;;;;;;4914790;29;20191;-75
2021/01/11 14:57:00;;;;;;;10.52;7.45;;;3.40;99.90;;;;;;4915870;29;20199;-77
2021/01/11 15:11:24;;;;;;;10.40;7.73;;;3.50;99.90;;;;;;4906789;29;20231;-76
2021/01/11 15:13:51;;;;;;;11.82;7.03;;;3.50;99.90;;;;;;4910064;29;20195;-75
2021/01/11 15:16:24;;;;;;;10.10;7.05;;;3.50;99.90;;;;;;4893469;29;20200;-76
2021/01/11 15:19:04;;;;;;;9.68;6.95;;;3.60;99.90;;;;;;4912004;29;20223;-76
2021/01/11 15:21:38;;;;;;;12.20;8.73;;;3.60;99.90;;;;;;4911452;29;20568;-78
2021/01/11 15:24:27;;;;;;;9.75;6.68;;;3.60;99.90;;;;;;4909626;29;20460;-77
2021/01/11 15:27:17;;;;;;;10.23;6.78;;;3.60;99.90;;;;;;4912431;29;20714;-76
2021/01/11 15:29:45;;;;;;;13.07;7.43;;;3.60;99.90;;;;;;4901290;29;20195;-75
2021/01/11 15:32:17;;;;;;;9.30;7.03;;;3.60;99.90;;;;;;4914944;29;20215;-78
2021/01/11 15:34:51;;;;;;;10.45;7.47;;;3.60;99.90;;;;;;4914116;29;20674;-76
2021/01/11 15:37:23;;;;;;;11.20;7.53;;;3.60;99.90;;;;;;4916575;29;20238;-76
2021/01/11 15:39:50;;;;;;;10.15;7.15;;;3.60;99.90;;;;;;4916386;29;20290;-76
2021/01/11 15:42:20;;;;;;;8.60;6.45;;;3.60;99.90;;;;;;4916394;29;20270;-77
2021/01/11 15:44:51;;;;;;;14.75;7.60;;;3.60;99.90;;;;;;4915924;29;20196;-76
2021/01/11 15:47:24;;;;;;;10.50;6.15;;;3.60;99.90;;;;;;4901443;29;20260;-76
2021/01/11 15:49:59;;;;;;;11.35;6.95;;;3.60;99.90;;;;;;4897147;29;20857;-77
2021/01/11 15:52:27;;;;;;;12.27;7.30;;;3.60;99.90;;;;;;4890728;29;20220;-75
2021/01/11 15:55:02;;;;;;;9.82;6.40;;;3.60;99.90;;;;;;4894999;29;20232;-78
2021/01/11 15:57:35;;;;;;;10.05;6.38;;;3.60;99.90;;;;;;4894658;29;20223;-77
2021/01/11 16:03:19;;;;;;;13.90;7.57;;;3.70;99.90;;;;;;4890516;29;20303;-76
2021/01/11 16:05:59;;;;;;;9.13;6.65;;;3.60;99.90;;;;;;4895461;29;20593;-76
2021/01/11 16:08:31;;;;;;;11.25;7.18;;;3.70;99.90;;;;;;4878236;29;20295;-75
2021/01/11 16:10:58;;;;;;;8.48;6.40;;;3.60;99.90;;;;;;4895360;29;20199;-75
2021/01/11 16:13:31;;;;;;;11.30;7.68;;;3.60;99.90;;;;;;4895960;29;20254;-77
2021/01/11 16:16:03;;;;;;;7.82;5.78;;;3.60;99.90;;;;;;4896853;29;20565;-77
2021/01/11 16:18:37;;;;;;;12.20;7.22;;;3.60;99.90;;;;;;4888594;29;20224;-75
2021/01/11 16:21:10;;;;;;;12.82;6.63;;;3.60;99.90;;;;;;4896803;29;20196;-77
2021/01/11 16:23:46;;;;;;;9.55;7.10;;;3.60;99.90;;;;;;4899830;29;20228;-76
2021/01/11 16:26:25;;;;;;;9.75;7.18;;;3.60;99.90;;;;;;4899323;29;20188;-77
2021/01/11 16:28:59;;;;;;;8.73;7.13;;;3.60;99.90;;;;;;4888900;29;20809;-76
2021/01/11 16:31:32;;;;;;;10.00;7.60;;;3.60;99.90;;;;;;4894313;29;20726;-76
2021/01/11 16:34:05;;;;;;;8.27;6.25;;;3.60;99.90;;;;;;4895057;29;20196;-77
2021/01/11 16:36:38;;;;;;;10.13;7.47;;;3.60;99.90;;;;;;4894847;29;20284;-76
2021/01/11 16:39:11;;;;;;;12.52;7.90;;;3.60;99.90;;;;;;4896453;29;20255;-78
2021/01/11 16:41:43;;;;;;;11.10;7.35;;;3.60;99.90;;;;;;4895720;29;20303;-74
2021/01/11 16:44:16;;;;;;;12.38;7.55;;;3.60;99.90;;;;;;4897435;29;20646;-76
2021/01/11 16:46:49;;;;;;;11.02;7.32;;;3.60;99.90;;;;;;4905984;29;20228;-76
2021/01/11 16:49:27;;;;;;;9.38;6.82;;;3.60;99.90;;;;;;4905723;29;20230;-75
2021/01/11 16:52:00;;;;;;;9.45;6.78;;;3.70;99.90;;;;;;4907523;29;20221;-76
2021/01/11 16:54:26;;;;;;;10.70;7.00;;;3.60;99.90;;;;;;4912407;29;20275;-75
2021/01/11 16:56:56;;;;;;;12.00;7.32;;;3.60;99.90;;;;;;4907802;29;20208;-76
2021/01/11 16:59:25;;;;;;;9.27;6.93;;;3.70;99.90;;;;;;4906454;29;20231;-75
2021/01/11 17:01:58;;;;;;;11.68;6.82;;;3.60;99.90;;;;;;4902539;29;20359;-75
2021/01/11 17:04:30;;;;;;;10.65;6.70;;;3.70;99.90;;;;;;4910655;29;20235;-75
2021/01/11 17:07:03;;;;;;;8.82;5.75;;;3.70;99.90;;;;;;4912652;29;20219;-74
2021/01/11 17:09:30;;;;;;;8.68;6.38;;;3.70;99.90;;;;;;4909416;29;20199;-76
2021/01/11 17:11:58;;;;;;;10.07;7.00;;;3.70;99.90;;;;;;4906454;29;20572;-76
2021/01/11 17:14:25;;;;;;;13.07;6.55;;;3.60;99.90;;;;;;4913500;29;20196;-75
2021/01/11 17:16:58;;;;;;;9.68;6.88;;;3.70;99.90;;;;;;4913033;29;20219;-75
2021/01/11 17:19:31;;;;;;;9.38;6.55;;;3.70;99.90;;;;;;4907182;29;20687;-74
2021/01/11 17:22:03;;;;;;;7.00;5.90;;;3.70;99.90;;;;;;4898775;29;20216;-75
2021/01/11 17:24:36;;;;;;;9.00;6.65;;;3.70;99.90;;;;;;4908298;29;20206;-85
2021/01/11 17:27:05;;;;;;;7.78;5.90;;;3.70;99.90;;;;;;4910403;29;20215;-83
2021/01/11 17:29:39;;;;;;;8.35;5.88;;;3.70;99.90;;;;;;4910911;29;20303;-83
2021/01/11 17:32:14;;;;;;;7.45;6.07;;;3.70;99.90;;;;;;4910622;29;20215;-88
2021/01/11 17:34:46;;;;;;;7.63;5.72;;;3.70;99.90;;;;;;4908164;29;20305;-76
2021/01/11 17:37:19;;;;;;;7.38;5.78;;;3.70;99.90;;;;;;4913999;29;20200;-75
2021/01/11 17:39:51;;;;;;;7.68;5.70;;;3.80;99.90;;;;;;4914684;29;20218;-76
2021/01/11 17:42:24;;;;;;;8.70;6.03;;;3.70;99.90;;;;;;4921639;29;20229;-75
2021/01/11 17:44:57;;;;;;;6.32;5.32;;;3.80;99.90;;;;;;4906720;29;20263;-75
2021/01/11 17:47:30;;;;;;;8.25;5.70;;;3.80;99.90;;;;;;4908821;29;20215;-75
2021/01/11 17:49:56;;;;;;;6.90;5.30;;;3.70;99.90;;;;;;4912057;29;20191;-76
2021/01/11 17:52:29;;;;;;;7.45;5.90;;;3.80;99.90;;;;;;4911300;29;20284;-76
2021/01/11 17:55:02;;;;;;;7.47;5.28;;;3.80;99.90;;;;;;4912740;29;20198;-77
2021/01/11 17:57:28;;;;;;;6.43;4.90;;;3.80;99.90;;;;;;4912224;29;20226;-76
2021/01/11 17:59:55;;;;;;;9.80;5.60;;;3.80;99.90;;;;;;4913381;29;20196;-76
2021/01/11 18:02:28;;;;;;;6.68;4.93;;;3.80;99.90;;;;;;4914010;29;20585;-76
2021/01/11 18:05:01;;;;;;;6.15;4.30;;;3.80;99.90;;;;;;4914181;29;20283;-77
2021/01/11 18:07:38;;;;;;;5.75;4.65;;;3.80;99.90;;;;;;4908357;29;20904;-74
2021/01/11 18:10:13;;;;;;;6.70;5.30;;;3.80;99.90;;;;;;4907749;29;20258;-76
2021/01/11 18:12:45;;;;;;;7.47;5.57;;;3.90;99.90;;;;;;4904817;29;20208;-77
2021/01/11 18:15:12;;;;;;;5.75;5.00;;;3.90;99.90;;;;;;4912307;29;20215;-78
2021/01/11 18:17:46;;;;;;;6.95;5.00;;;3.90;99.90;;;;;;4908484;29;20198;-76
2021/01/11 18:20:18;;;;;;;6.60;4.38;;;3.90;99.90;;;;;;4903707;29;20227;-73
2021/01/11 18:22:45;;;;;;;5.07;4.50;;;3.90;99.90;;;;;;4904226;29;20215;-76
2021/01/11 18:25:18;;;;;;;6.18;4.70;;;3.90;99.90;;;;;;4913954;29;20214;-77
2021/01/11 18:27:50;;;;;;;6.95;4.38;;;3.90;99.90;;;;;;4917994;29;20677;-75
2021/01/11 18:30:23;;;;;;;9.80;5.68;;;4.00;99.90;;;;;;4910457;29;20671;-77
2021/01/11 18:32:57;;;;;;;8.68;5.90;;;4.00;99.90;;;;;;4911453;29;20215;-75
2021/01/11 18:35:30;;;;;;;10.13;6.57;;;4.00;99.90;;;;;;4916349;29;20199;-79
2021/01/11 18:38:03;;;;;;;7.30;4.78;;;4.00;99.90;;;;;;4915567;29;20233;-75
2021/01/11 18:40:36;;;;;;;6.60;5.13;;;4.00;99.90;;;;;;4898875;29;20203;-84
2021/01/11 18:43:08;;;;;;;7.82;5.10;;;4.10;99.90;;;;;;4916410;29;20230;-76
2021/01/11 18:45:44;;;;;;;7.50;5.10;;;4.10;99.90;;;;;;4916786;29;20234;-77
2021/01/11 18:48:18;;;;;;;6.15;4.90;;;4.10;99.90;;;;;;4900678;29;20195;-75
2021/01/11 18:50:56;;;;;;;6.40;4.82;;;4.10;99.90;;;;;;4917327;29;20331;-76
2021/01/11 18:53:29;;;;;;;5.88;4.60;;;4.10;99.90;;;;;;4910127;29;20558;-76
2021/01/11 18:56:02;;;;;;;5.43;4.20;;;4.10;99.90;;;;;;4913452;29;20251;-77
2021/01/11 18:58:28;;;;;;;9.00;4.72;;;4.10;99.90;;;;;;4908795;29;20230;-75
2021/01/11 19:00:55;;;;;;;5.30;4.68;;;4.10;99.90;;;;;;4918486;29;20641;-76
2021/01/11 19:03:22;;;;;;;5.85;4.38;;;4.20;99.90;;;;;;4911568;29;20226;-76
2021/01/11 19:05:49;;;;;;;7.07;4.63;;;4.10;99.90;;;;;;4910214;29;20213;-75
2021/01/11 19:08:16;;;;;;;6.25;4.20;;;4.20;99.90;;;;;;4908224;29;20275;-76
2021/01/11 19:10:45;;;;;;;4.25;3.85;;;4.10;99.90;;;;;;4908061;29;20214;-77
2021/01/11 19:13:12;;;;;;;6.93;5.05;;;4.20;99.90;;;;;;4911987;29;20216;-76
2021/01/11 19:15:38;;;;;;;5.80;4.60;;;4.10;99.90;;;;;;4912255;29;20731;-76
2021/01/11 19:18:05;;;;;;;8.82;5.00;;;4.20;99.90;;;;;;4912217;29;20315;-75
2021/01/11 19:20:33;;;;;;;6.50;5.13;;;4.20;99.90;;;;;;4913276;29;20625;-74
2021/01/11 19:23:00;;;;;;;6.22;4.80;;;4.20;99.90;;;;;;4913876;29;20245;-76
2021/01/11 19:25:34;;;;;;;5.53;4.72;;;4.20;99.90;;;;;;4896309;29;20203;-76
2021/01/11 19:28:01;;;;;;;9.45;4.82;;;4.20;99.90;;;;;;4911294;29;20200;-75
2021/01/11 19:30:28;;;;;;;6.18;4.60;;;4.20;99.90;;;;;;4907613;29;20207;-76
2021/01/11 19:32:54;;;;;;;5.53;4.80;;;4.20;99.90;;;;;;4909806;29;20222;-74
2021/01/11 19:35:36;;;;;;;6.45;4.75;;;4.30;99.90;;;;;;4910981;29;20696;-75
2021/01/11 19:38:03;;;;;;;5.15;4.63;;;4.30;99.90;;;;;;4897583;29;20657;-75
2021/01/11 19:40:30;;;;;;;6.18;4.95;;;4.30;99.90;;;;;;4911334;29;21244;-77
2021/01/11 19:42:57;;;;;;;7.25;5.28;;;4.30;99.90;;;;;;4913208;29;20299;-76
2021/01/11 19:45:24;;;;;;;6.00;4.25;;;4.30;99.90;;;;;;4912876;29;20199;-76
2021/01/11 19:47:51;;;;;;;9.07;5.03;;;4.30;99.90;;;;;;4913137;29;20271;-75
2021/01/11 19:50:17;;;;;;;4.75;4.25;;;4.40;99.90;;;;;;4912241;29;20759;-76
2021/01/11 19:52:45;;;;;;;6.85;4.65;;;4.30;99.90;;;;;;4908000;29;20223;-75
2021/01/11 19:55:12;;;;;;;5.13;4.55;;;4.30;99.90;;;;;;4909712;29;20188;-76
2021/01/11 19:57:39;;;;;;;6.15;4.78;;;4.40;99.90;;;;;;4911889;29;20196;-76
2021/01/11 20:00:07;;;;;;;5.90;4.03;;;4.40;99.90;;;;;;4911204;29;20278;-76
2021/01/11 20:02:34;;;;;;;5.32;4.05;;;4.40;99.90;;;;;;4894165;29;20219;-76
2021/01/11 20:05:00;;;;;;;7.20;4.43;;;4.40;99.90;;;;;;4895405;29;20704;-77
2021/01/11 20:07:29;;;;;;;6.13;4.80;;;4.40;99.90;;;;;;4912788;29;20710;-75
2021/01/11 20:09:58;;;;;;;6.45;5.43;;;4.40;99.90;;;;;;4895929;29;20531;-75
2021/01/11 20:12:26;;;;;;;5.45;4.70;;;4.40;99.90;;;;;;4912694;29;20223;-75
2021/01/11 20:15:05;;;;;;;6.75;5.20;;;4.40;99.90;;;;;;4891119;29;20210;-74
2021/01/11 20:17:42;;;;;;;6.50;5.03;;;4.40;99.90;;;;;;4908521;29;20202;-76
2021/01/11 20:20:11;;;;;;;7.50;4.80;;;4.40;99.90;;;;;;4911286;29;20199;-75
2021/01/11 20:22:39;;;;;;;5.85;4.72;;;4.40;99.90;;;;;;4910171;29;21047;-75
2021/01/11 20:25:08;;;;;;;5.50;4.60;;;4.40;99.90;;;;;;4888505;29;20199;-76
2021/01/11 20:27:35;;;;;;;6.72;5.45;;;4.40;99.90;;;;;;4895036;29;20234;-74
2021/01/11 20:30:17;;;;;;;7.70;6.18;;;4.40;99.90;;;;;;4912745;29;20198;-75
2021/01/11 20:32:44;;;;;;;8.05;6.13;;;4.40;99.90;;;;;;4896876;29;20945;-75
2021/01/11 20:35:13;;;;;;;8.85;6.03;;;4.40;99.90;;;;;;4895984;29;20291;-76
2021/01/11 20:37:40;;;;;;;6.40;5.00;;;4.40;99.90;;;;;;4906885;29;20226;-78
2021/01/11 20:40:17;;;;;;;6.43;5.32;;;4.40;99.90;;;;;;4908172;29;20187;-75
2021/01/11 20:42:44;;;;;;;7.43;4.38;;;4.40;99.90;;;;;;4877934;29;20612;-75
2021/01/11 20:45:12;;;;;;;6.97;5.15;;;4.40;99.90;;;;;;4909938;29;20211;-75
2021/01/11 20:47:44;;;;;;;6.22;5.35;;;4.50;99.90;;;;;;4910113;29;20228;-75
2021/01/11 20:50:18;;;;;;;9.25;5.40;;;4.40;99.90;;;;;;4911739;29;20203;-74